sensor_id;sensor_type;location;lat;lon;timestamp;pressure;altitude;pressure_sealevel;temperature;humidity
80397;BME280;69721;55.894;-3.052;2023-07-13T00:00:56;100400.73;;;16.56;50.78
80397;BME280;69721;55.894;-3.052;2023-07-13T00:03:21;100403.11;;;16.64;50.27
80397;BME280;69721;55.894;-3.052;2023-07-13T00:05:46;100400.14;;;16.94;48.80
80397;BME280;69721;55.894;-3.052;2023-07-13T00:08:12;100400.22;;;17.41;49.10
80397;BME280;69721;55.894;-3.052;2023-07-13T00:10:40;100399.04;;;17.50;49.01
80397;BME280;69721;55.894;-3.052;2023-07-13T00:13:03;100396.51;;;17.46;48.44
80397;BME280;69721;55.894;-3.052;2023-07-13T00:15:28;100403.03;;;16.92;49.31
80397;BME280;69721;55.894;-3.052;2023-07-13T00:17:54;100403.49;;;16.55;50.61
80397;BME280;69721;55.894;-3.052;2023-07-13T00:20:19;100404.47;;;16.74;50.01
80397;BME280;69721;55.894;-3.052;2023-07-13T00:22:44;100404.34;;;15.72;52.46
80397;BME280;69721;55.894;-3.052;2023-07-13T00:25:11;100406.81;;;15.51;53.13
80397;BME280;69721;55.894;-3.052;2023-07-13T00:27:35;100404.62;;;16.15;51.77
80397;BME280;69721;55.894;-3.052;2023-07-13T00:30:00;100406.38;;;15.73;52.61
80397;BME280;69721;55.894;-3.052;2023-07-13T00:32:27;100409.25;;;16.03;52.38
80397;BME280;69721;55.894;-3.052;2023-07-13T00:34:51;100410.82;;;15.73;52.24
80397;BME280;69721;55.894;-3.052;2023-07-13T00:37:17;100411.04;;;16.34;51.10
80397;BME280;69721;55.894;-3.052;2023-07-13T00:39:42;100410.72;;;15.77;52.01
80397;BME280;69721;55.894;-3.052;2023-07-13T00:42:07;100418.56;;;15.58;52.93
80397;BME280;69721;55.894;-3.052;2023-07-13T00:44:33;100423.83;;;15.53;52.61
80397;BME280;69721;55.894;-3.052;2023-07-13T00:46:58;100425.14;;;15.47;53.24
80397;BME280;69721;55.894;-3.052;2023-07-13T00:49:26;100421.83;;;16.28;51.51
80397;BME280;69721;55.894;-3.052;2023-07-13T00:51:52;100421.32;;;16.23;51.62
80397;BME280;69721;55.894;-3.052;2023-07-13T00:54:18;100426.00;;;15.76;52.38
80397;BME280;69721;55.894;-3.052;2023-07-13T00:56:40;100425.60;;;15.95;52.31
80397;BME280;69721;55.894;-3.052;2023-07-13T00:59:07;100423.65;;;16.63;50.38
80397;BME280;69721;55.894;-3.052;2023-07-13T01:01:30;100424.30;;;16.23;51.06
80397;BME280;69721;55.894;-3.052;2023-07-13T01:03:56;100423.42;;;16.55;49.97
80397;BME280;69721;55.894;-3.052;2023-07-13T01:06:21;100427.81;;;16.66;49.16
80397;BME280;69721;55.894;-3.052;2023-07-13T01:08:47;100429.21;;;16.42;50.66
80397;BME280;69721;55.894;-3.052;2023-07-13T01:11:18;100427.98;;;15.67;50.80
80397;BME280;69721;55.894;-3.052;2023-07-13T01:13:38;100428.81;;;15.87;51.56
80397;BME280;69721;55.894;-3.052;2023-07-13T01:16:12;100434.42;;;14.42;54.62
80397;BME280;69721;55.894;-3.052;2023-07-13T01:18:29;100429.69;;;15.25;52.45
80397;BME280;69721;55.894;-3.052;2023-07-13T01:20:56;100438.74;;;14.60;54.02
80397;BME280;69721;55.894;-3.052;2023-07-13T01:23:22;100434.79;;;14.84;53.37
80397;BME280;69721;55.894;-3.052;2023-07-13T01:25:46;100435.97;;;14.77;53.31
80397;BME280;69721;55.894;-3.052;2023-07-13T01:28:12;100432.04;;;15.18;52.95
80397;BME280;69721;55.894;-3.052;2023-07-13T01:30:38;100434.82;;;14.80;54.50
80397;BME280;69721;55.894;-3.052;2023-07-13T01:33:02;100428.23;;;15.23;52.58
80397;BME280;69721;55.894;-3.052;2023-07-13T01:35:29;100427.33;;;15.11;53.47
80397;BME280;69721;55.894;-3.052;2023-07-13T01:37:54;100433.80;;;15.49;52.07
80397;BME280;69721;55.894;-3.052;2023-07-13T01:40:20;100432.97;;;15.37;51.97
80397;BME280;69721;55.894;-3.052;2023-07-13T01:42:45;100435.95;;;15.51;51.71
80397;BME280;69721;55.894;-3.052;2023-07-13T01:45:10;100433.18;;;15.75;50.39
80397;BME280;69721;55.894;-3.052;2023-07-13T01:47:36;100435.08;;;15.63;51.12
80397;BME280;69721;55.894;-3.052;2023-07-13T01:50:01;100434.94;;;15.52;51.12
80397;BME280;69721;55.894;-3.052;2023-07-13T01:52:26;100440.16;;;14.51;52.20
80397;BME280;69721;55.894;-3.052;2023-07-13T01:54:52;100433.26;;;15.14;51.60
80397;BME280;69721;55.894;-3.052;2023-07-13T01:57:17;100428.84;;;15.80;50.21
80397;BME280;69721;55.894;-3.052;2023-07-13T01:59:43;100426.51;;;15.80;50.17
80397;BME280;69721;55.894;-3.052;2023-07-13T02:02:08;100426.18;;;16.12;49.36
80397;BME280;69721;55.894;-3.052;2023-07-13T02:04:34;100429.88;;;15.16;51.43
80397;BME280;69721;55.894;-3.052;2023-07-13T02:06:59;100429.33;;;15.90;49.89
80397;BME280;69721;55.894;-3.052;2023-07-13T02:09:24;100432.04;;;16.17;49.39
80397;BME280;69721;55.894;-3.052;2023-07-13T02:11:50;100434.48;;;15.49;50.58
80397;BME280;69721;55.894;-3.052;2023-07-13T02:14:15;100428.43;;;15.70;49.25
80397;BME280;69721;55.894;-3.052;2023-07-13T02:16:41;100430.77;;;15.64;49.55
80397;BME280;69721;55.894;-3.052;2023-07-13T02:19:06;100430.19;;;16.03;49.31
80397;BME280;69721;55.894;-3.052;2023-07-13T02:21:32;100427.46;;;16.48;48.32
80397;BME280;69721;55.894;-3.052;2023-07-13T02:23:58;100429.04;;;15.31;50.19
80397;BME280;69721;55.894;-3.052;2023-07-13T02:26:23;100427.01;;;16.35;48.90
80397;BME280;69721;55.894;-3.052;2023-07-13T02:28:49;100427.53;;;16.10;48.47
80397;BME280;69721;55.894;-3.052;2023-07-13T02:31:15;100433.53;;;15.02;50.01
80397;BME280;69721;55.894;-3.052;2023-07-13T02:33:39;100430.97;;;15.37;49.92
80397;BME280;69721;55.894;-3.052;2023-07-13T02:36:05;100435.31;;;14.94;51.39
80397;BME280;69721;55.894;-3.052;2023-07-13T02:38:30;100438.29;;;14.74;51.87
80397;BME280;69721;55.894;-3.052;2023-07-13T02:40:55;100442.62;;;14.29;52.56
80397;BME280;69721;55.894;-3.052;2023-07-13T02:43:22;100443.44;;;14.44;52.59
80397;BME280;69721;55.894;-3.052;2023-07-13T02:45:47;100439.00;;;15.38;51.27
80397;BME280;69721;55.894;-3.052;2023-07-13T02:48:13;100439.74;;;14.99;51.30
80397;BME280;69721;55.894;-3.052;2023-07-13T02:50:37;100440.49;;;14.86;52.00
80397;BME280;69721;55.894;-3.052;2023-07-13T02:53:03;100440.37;;;14.86;52.00
80397;BME280;69721;55.894;-3.052;2023-07-13T02:55:28;100440.32;;;15.21;51.12
80397;BME280;69721;55.894;-3.052;2023-07-13T02:57:54;100440.85;;;15.12;51.62
80397;BME280;69721;55.894;-3.052;2023-07-13T03:00:19;100442.20;;;14.28;53.63
80397;BME280;69721;55.894;-3.052;2023-07-13T03:02:44;100447.10;;;14.73;52.45
80397;BME280;69721;55.894;-3.052;2023-07-13T03:05:10;100445.06;;;13.31;55.67
80397;BME280;69721;55.894;-3.052;2023-07-13T03:07:35;100445.45;;;14.38;53.75
80397;BME280;69721;55.894;-3.052;2023-07-13T03:10:01;100437.90;;;14.99;51.15
80397;BME280;69721;55.894;-3.052;2023-07-13T03:12:26;100440.93;;;14.54;51.65
80397;BME280;69721;55.894;-3.052;2023-07-13T03:14:51;100439.78;;;15.28;51.51
80397;BME280;69721;55.894;-3.052;2023-07-13T03:17:17;100443.51;;;14.95;51.65
80397;BME280;69721;55.894;-3.052;2023-07-13T03:19:42;100440.86;;;14.86;51.79
80397;BME280;69721;55.894;-3.052;2023-07-13T03:22:08;100442.61;;;14.13;52.67
80397;BME280;69721;55.894;-3.052;2023-07-13T03:24:34;100447.62;;;14.39;52.94
80397;BME280;69721;55.894;-3.052;2023-07-13T03:26:58;100450.54;;;13.46;54.27
80397;BME280;69721;55.894;-3.052;2023-07-13T03:29:24;100455.31;;;13.98;53.91
80397;BME280;69721;55.894;-3.052;2023-07-13T03:31:49;100454.83;;;14.16;53.45
80397;BME280;69721;55.894;-3.052;2023-07-13T03:34:15;100453.95;;;14.65;51.29
80397;BME280;69721;55.894;-3.052;2023-07-13T03:36:40;100451.98;;;15.19;50.28
80397;BME280;69721;55.894;-3.052;2023-07-13T03:39:06;100453.37;;;15.33;50.00
80397;BME280;69721;55.894;-3.052;2023-07-13T03:41:31;100459.92;;;14.78;50.42
80397;BME280;69721;55.894;-3.052;2023-07-13T03:43:57;100458.90;;;13.98;51.78
80397;BME280;69721;55.894;-3.052;2023-07-13T03:46:22;100462.87;;;14.92;49.92
80397;BME280;69721;55.894;-3.052;2023-07-13T03:48:48;100461.33;;;14.50;50.01
80397;BME280;69721;55.894;-3.052;2023-07-13T03:51:15;100464.98;;;14.79;49.61
80397;BME280;69721;55.894;-3.052;2023-07-13T03:53:40;100462.96;;;14.86;49.71
80397;BME280;69721;55.894;-3.052;2023-07-13T03:56:05;100466.53;;;13.73;51.25
80397;BME280;69721;55.894;-3.052;2023-07-13T03:58:31;100466.62;;;13.79;51.04
80397;BME280;69721;55.894;-3.052;2023-07-13T04:00:56;100470.33;;;13.06;53.19
80397;BME280;69721;55.894;-3.052;2023-07-13T04:03:21;100465.90;;;13.41;52.00
80397;BME280;69721;55.894;-3.052;2023-07-13T04:05:47;100473.49;;;12.58;54.18
80397;BME280;69721;55.894;-3.052;2023-07-13T04:08:12;100475.92;;;12.60;53.80
80397;BME280;69721;55.894;-3.052;2023-07-13T04:10:37;100476.27;;;13.00;53.41
80397;BME280;69721;55.894;-3.052;2023-07-13T04:13:03;100474.42;;;13.56;51.73
80397;BME280;69721;55.894;-3.052;2023-07-13T04:15:30;100481.68;;;12.83;52.28
80397;BME280;69721;55.894;-3.052;2023-07-13T04:17:54;100480.99;;;13.44;51.63
80397;BME280;69721;55.894;-3.052;2023-07-13T04:20:19;100486.98;;;13.66;52.02
80397;BME280;69721;55.894;-3.052;2023-07-13T04:22:44;100484.91;;;14.27;50.14
80397;BME280;69721;55.894;-3.052;2023-07-13T04:25:10;100486.32;;;13.99;50.18
80397;BME280;69721;55.894;-3.052;2023-07-13T04:27:35;100491.68;;;13.74;51.00
80397;BME280;69721;55.894;-3.052;2023-07-13T04:30:01;100498.25;;;13.28;51.79
80397;BME280;69721;55.894;-3.052;2023-07-13T04:32:26;100498.38;;;14.30;49.90
80397;BME280;69721;55.894;-3.052;2023-07-13T04:34:52;100503.52;;;13.35;52.12
80397;BME280;69721;55.894;-3.052;2023-07-13T04:37:17;100508.55;;;11.70;55.44
80397;BME280;69721;55.894;-3.052;2023-07-13T04:39:43;100511.60;;;12.54;54.72
80397;BME280;69721;55.894;-3.052;2023-07-13T04:42:08;100509.71;;;12.55;54.87
80397;BME280;69721;55.894;-3.052;2023-07-13T04:44:33;100511.32;;;11.98;55.47
80397;BME280;69721;55.894;-3.052;2023-07-13T04:46:59;100512.32;;;12.22;55.12
80397;BME280;69721;55.894;-3.052;2023-07-13T04:49:24;100514.99;;;11.90;55.90
80397;BME280;69721;55.894;-3.052;2023-07-13T04:51:49;100516.45;;;12.93;54.32
80397;BME280;69721;55.894;-3.052;2023-07-13T04:54:15;100513.37;;;12.43;55.08
80397;BME280;69721;55.894;-3.052;2023-07-13T04:56:40;100516.80;;;12.27;55.58
80397;BME280;69721;55.894;-3.052;2023-07-13T04:59:06;100518.12;;;12.25;55.58
80397;BME280;69721;55.894;-3.052;2023-07-13T05:01:31;100521.91;;;12.97;53.77
80397;BME280;69721;55.894;-3.052;2023-07-13T05:03:56;100523.15;;;14.16;51.28
80397;BME280;69721;55.894;-3.052;2023-07-13T05:06:22;100523.32;;;13.76;51.94
80397;BME280;69721;55.894;-3.052;2023-07-13T05:08:47;100526.19;;;14.44;50.69
80397;BME280;69721;55.894;-3.052;2023-07-13T05:11:12;100528.38;;;14.95;49.90
80397;BME280;69721;55.894;-3.052;2023-07-13T05:13:38;100525.95;;;15.84;47.15
80397;BME280;69721;55.894;-3.052;2023-07-13T05:16:05;100528.93;;;15.10;48.81
80397;BME280;69721;55.894;-3.052;2023-07-13T05:18:30;100529.92;;;14.87;49.11
80397;BME280;69721;55.894;-3.052;2023-07-13T05:20:58;100531.26;;;14.52;49.93
80397;BME280;69721;55.894;-3.052;2023-07-13T05:23:19;100533.47;;;14.63;50.52
80397;BME280;69721;55.894;-3.052;2023-07-13T05:25:45;100535.32;;;14.25;50.74
80397;BME280;69721;55.894;-3.052;2023-07-13T05:28:10;100534.54;;;13.42;52.43
80397;BME280;69721;55.894;-3.052;2023-07-13T05:30:36;100537.85;;;13.16;52.67
80397;BME280;69721;55.894;-3.052;2023-07-13T05:33:01;100541.65;;;13.26;54.05
80397;BME280;69721;55.894;-3.052;2023-07-13T05:35:26;100543.90;;;13.29;54.10
80397;BME280;69721;55.894;-3.052;2023-07-13T05:37:52;100543.55;;;13.12;54.42
80397;BME280;69721;55.894;-3.052;2023-07-13T05:40:17;100544.41;;;13.07;54.66
80397;BME280;69721;55.894;-3.052;2023-07-13T05:42:44;100546.50;;;12.95;54.52
80397;BME280;69721;55.894;-3.052;2023-07-13T05:45:09;100546.38;;;13.26;53.33
80397;BME280;69721;55.894;-3.052;2023-07-13T05:47:34;100544.48;;;13.50;52.82
80397;BME280;69721;55.894;-3.052;2023-07-13T05:50:00;100551.30;;;12.89;54.15
80397;BME280;69721;55.894;-3.052;2023-07-13T05:52:25;100552.57;;;14.24;52.24
80397;BME280;69721;55.894;-3.052;2023-07-13T05:54:51;100558.42;;;14.44;51.48
80397;BME280;69721;55.894;-3.052;2023-07-13T05:57:16;100564.34;;;12.59;55.04
80397;BME280;69721;55.894;-3.052;2023-07-13T05:59:41;100565.70;;;13.89;53.52
80397;BME280;69721;55.894;-3.052;2023-07-13T06:02:08;100564.32;;;13.66;52.97
80397;BME280;69721;55.894;-3.052;2023-07-13T06:04:32;100571.78;;;13.43;52.89
80397;BME280;69721;55.894;-3.052;2023-07-13T06:06:58;100570.71;;;12.91;54.07
80397;BME280;69721;55.894;-3.052;2023-07-13T06:09:23;100566.57;;;14.19;52.99
80397;BME280;69721;55.894;-3.052;2023-07-13T06:11:48;100567.32;;;15.15;50.90
80397;BME280;69721;55.894;-3.052;2023-07-13T06:14:14;100567.95;;;14.75;50.45
80397;BME280;69721;55.894;-3.052;2023-07-13T06:16:40;100568.55;;;13.83;52.90
80397;BME280;69721;55.894;-3.052;2023-07-13T06:19:05;100569.17;;;14.77;51.04
80397;BME280;69721;55.894;-3.052;2023-07-13T06:21:30;100572.41;;;13.27;53.68
80397;BME280;69721;55.894;-3.052;2023-07-13T06:23:56;100573.67;;;13.83;53.11
80397;BME280;69721;55.894;-3.052;2023-07-13T06:26:21;100577.47;;;13.88;52.61
80397;BME280;69721;55.894;-3.052;2023-07-13T06:28:47;100581.58;;;13.89;52.85
80397;BME280;69721;55.894;-3.052;2023-07-13T06:31:13;100578.30;;;13.99;52.35
80397;BME280;69721;55.894;-3.052;2023-07-13T06:33:37;100580.32;;;15.27;49.51
80397;BME280;69721;55.894;-3.052;2023-07-13T06:36:03;100581.19;;;15.55;49.04
80397;BME280;69721;55.894;-3.052;2023-07-13T06:38:28;100581.46;;;15.22;49.49
80397;BME280;69721;55.894;-3.052;2023-07-13T06:40:53;100578.68;;;16.19;48.30
80397;BME280;69721;55.894;-3.052;2023-07-13T06:43:19;100584.38;;;15.06;49.70
80397;BME280;69721;55.894;-3.052;2023-07-13T06:45:46;100586.61;;;15.37;49.59
80397;BME280;69721;55.894;-3.052;2023-07-13T06:48:10;100589.46;;;15.12;49.97
80397;BME280;69721;55.894;-3.052;2023-07-13T06:50:35;100585.89;;;15.59;49.45
80397;BME280;69721;55.894;-3.052;2023-07-13T06:53:00;100589.82;;;13.60;53.59
80397;BME280;69721;55.894;-3.052;2023-07-13T06:55:26;100589.21;;;13.41;54.72
80397;BME280;69721;55.894;-3.052;2023-07-13T06:57:51;100591.35;;;14.60;53.33
80397;BME280;69721;55.894;-3.052;2023-07-13T07:00:17;100592.08;;;15.40;50.49
80397;BME280;69721;55.894;-3.052;2023-07-13T07:02:42;100594.67;;;14.34;53.19
80397;BME280;69721;55.894;-3.052;2023-07-13T07:05:08;100592.06;;;14.75;51.56
80397;BME280;69721;55.894;-3.052;2023-07-13T07:07:33;100592.90;;;14.63;52.64
80397;BME280;69721;55.894;-3.052;2023-07-13T07:09:59;100602.60;;;13.88;53.84
80397;BME280;69721;55.894;-3.052;2023-07-13T07:12:24;100601.46;;;14.05;54.21
80397;BME280;69721;55.894;-3.052;2023-07-13T07:14:50;100601.70;;;14.24;54.47
80397;BME280;69721;55.894;-3.052;2023-07-13T07:17:15;100599.14;;;13.88;53.44
80397;BME280;69721;55.894;-3.052;2023-07-13T07:19:41;100599.91;;;14.38;52.93
80397;BME280;69721;55.894;-3.052;2023-07-13T07:22:06;100607.47;;;13.79;53.60
80397;BME280;69721;55.894;-3.052;2023-07-13T07:24:31;100605.21;;;13.53;55.43
80397;BME280;69721;55.894;-3.052;2023-07-13T07:26:58;100605.04;;;14.55;53.81
80397;BME280;69721;55.894;-3.052;2023-07-13T07:29:24;100600.28;;;14.99;51.42
80397;BME280;69721;55.894;-3.052;2023-07-13T07:31:50;100599.06;;;15.32;51.76
80397;BME280;69721;55.894;-3.052;2023-07-13T07:34:15;100598.92;;;13.90;52.86
80397;BME280;69721;55.894;-3.052;2023-07-13T07:36:41;100600.68;;;14.23;53.15
80397;BME280;69721;55.894;-3.052;2023-07-13T07:39:06;100593.77;;;13.88;53.65
80397;BME280;69721;55.894;-3.052;2023-07-13T07:41:32;100595.95;;;14.38;51.39
80397;BME280;69721;55.894;-3.052;2023-07-13T07:43:57;100594.39;;;14.94;52.63
80397;BME280;69721;55.894;-3.052;2023-07-13T07:46:22;100593.34;;;15.38;50.19
80397;BME280;69721;55.894;-3.052;2023-07-13T07:48:48;100595.19;;;15.54;49.77
80397;BME280;69721;55.894;-3.052;2023-07-13T07:51:13;100590.33;;;16.18;47.80
80397;BME280;69721;55.894;-3.052;2023-07-13T07:53:38;100600.67;;;15.81;49.43
80397;BME280;69721;55.894;-3.052;2023-07-13T07:56:04;100598.62;;;15.84;49.45
80397;BME280;69721;55.894;-3.052;2023-07-13T07:58:29;100595.74;;;16.00;49.86
80397;BME280;69721;55.894;-3.052;2023-07-13T08:03:20;100606.57;;;15.93;49.00
80397;BME280;69721;55.894;-3.052;2023-07-13T08:05:45;100604.78;;;14.75;50.44
80397;BME280;69721;55.894;-3.052;2023-07-13T08:08:10;100601.25;;;16.22;48.46
80397;BME280;69721;55.894;-3.052;2023-07-13T08:10:36;100601.27;;;16.34;47.11
80397;BME280;69721;55.894;-3.052;2023-07-13T08:13:02;100605.94;;;15.46;48.00
80397;BME280;69721;55.894;-3.052;2023-07-13T08:15:27;100601.74;;;16.57;46.24
80397;BME280;69721;55.894;-3.052;2023-07-13T08:17:53;100599.20;;;16.86;46.57
80397;BME280;69721;55.894;-3.052;2023-07-13T08:20:18;100599.99;;;16.64;46.60
80397;BME280;69721;55.894;-3.052;2023-07-13T08:22:44;100595.61;;;17.20;45.47
80397;BME280;69721;55.894;-3.052;2023-07-13T08:25:09;100595.57;;;17.00;44.81
80397;BME280;69721;55.894;-3.052;2023-07-13T08:27:34;100589.97;;;17.70;44.52
80397;BME280;69721;55.894;-3.052;2023-07-13T08:30:00;100589.64;;;16.14;47.47
80397;BME280;69721;55.894;-3.052;2023-07-13T08:32:25;100593.69;;;16.56;47.42
80397;BME280;69721;55.894;-3.052;2023-07-13T08:34:51;100592.86;;;16.56;47.79
80397;BME280;69721;55.894;-3.052;2023-07-13T08:37:16;100594.49;;;16.04;47.42
80397;BME280;69721;55.894;-3.052;2023-07-13T08:39:41;100598.71;;;16.41;47.23
80397;BME280;69721;55.894;-3.052;2023-07-13T08:42:13;100598.69;;;17.01;45.98
80397;BME280;69721;55.894;-3.052;2023-07-13T08:44:40;100604.52;;;18.16;43.35
80397;BME280;69721;55.894;-3.052;2023-07-13T08:46:58;100602.47;;;16.97;45.91
80397;BME280;69721;55.894;-3.052;2023-07-13T08:49:23;100606.12;;;17.74;44.47
80397;BME280;69721;55.894;-3.052;2023-07-13T08:51:51;100602.05;;;17.79;44.08
80397;BME280;69721;55.894;-3.052;2023-07-13T08:54:20;100604.25;;;17.63;43.92
80397;BME280;69721;55.894;-3.052;2023-07-13T08:56:39;100606.31;;;16.28;46.73
80397;BME280;69721;55.894;-3.052;2023-07-13T08:59:10;100608.21;;;15.19;47.65
80397;BME280;69721;55.894;-3.052;2023-07-13T09:01:33;100601.80;;;16.65;45.37
80397;BME280;69721;55.894;-3.052;2023-07-13T09:04:01;100599.28;;;16.15;45.24
80397;BME280;69721;55.894;-3.052;2023-07-13T09:06:24;100599.16;;;16.79;46.92
80397;BME280;69721;55.894;-3.052;2023-07-13T09:08:54;100597.32;;;16.85;44.27
80397;BME280;69721;55.894;-3.052;2023-07-13T09:11:21;100597.06;;;15.91;43.82
80397;BME280;69721;55.894;-3.052;2023-07-13T09:13:43;100604.11;;;15.65;45.34
80397;BME280;69721;55.894;-3.052;2023-07-13T09:16:03;100604.01;;;16.38;44.42
80397;BME280;69721;55.894;-3.052;2023-07-13T09:18:32;100611.93;;;15.32;47.17
80397;BME280;69721;55.894;-3.052;2023-07-13T09:20:59;100621.99;;;15.24;48.44
80397;BME280;69721;55.894;-3.052;2023-07-13T09:23:24;100621.07;;;15.18;47.99
80397;BME280;69721;55.894;-3.052;2023-07-13T09:25:48;100618.97;;;15.24;49.17
80397;BME280;69721;55.894;-3.052;2023-07-13T09:28:14;100616.65;;;16.06;48.54
80397;BME280;69721;55.894;-3.052;2023-07-13T09:30:40;100608.51;;;15.71;48.25
80397;BME280;69721;55.894;-3.052;2023-07-13T09:33:01;100606.53;;;16.96;47.34
80397;BME280;69721;55.894;-3.052;2023-07-13T09:35:29;100606.11;;;18.41;42.97
80397;BME280;69721;55.894;-3.052;2023-07-13T09:37:56;100603.41;;;17.40;44.78
80397;BME280;69721;55.894;-3.052;2023-07-13T09:40:24;100608.21;;;18.99;43.63
80397;BME280;69721;55.894;-3.052;2023-07-13T09:42:43;100601.54;;;17.52;43.72
80397;BME280;69721;55.894;-3.052;2023-07-13T09:45:08;100601.17;;;19.75;42.56
80397;BME280;69721;55.894;-3.052;2023-07-13T09:47:39;100602.34;;;19.31;42.01
80397;BME280;69721;55.894;-3.052;2023-07-13T09:50:00;100607.01;;;18.76;43.09
80397;BME280;69721;55.894;-3.052;2023-07-13T09:52:25;100607.03;;;16.98;44.65
80397;BME280;69721;55.894;-3.052;2023-07-13T09:54:51;100607.99;;;17.21;44.43
80397;BME280;69721;55.894;-3.052;2023-07-13T09:57:17;100613.64;;;16.85;44.70
80397;BME280;69721;55.894;-3.052;2023-07-13T09:59:43;100615.89;;;16.20;45.72
80397;BME280;69721;55.894;-3.052;2023-07-13T10:04:33;100618.28;;;16.91;43.80
80397;BME280;69721;55.894;-3.052;2023-07-13T10:07:06;100620.56;;;17.20;42.56
80397;BME280;69721;55.894;-3.052;2023-07-13T10:09:22;100625.57;;;15.69;45.76
80397;BME280;69721;55.894;-3.052;2023-07-13T10:11:50;100632.51;;;15.54;45.68
80397;BME280;69721;55.894;-3.052;2023-07-13T10:14:17;100634.06;;;15.89;42.59
80397;BME280;69721;55.894;-3.052;2023-07-13T10:16:39;100638.36;;;16.11;44.09
80397;BME280;69721;55.894;-3.052;2023-07-13T10:19:08;100635.78;;;16.33;44.15
80397;BME280;69721;55.894;-3.052;2023-07-13T10:21:33;100628.98;;;17.29;43.02
80397;BME280;69721;55.894;-3.052;2023-07-13T10:23:57;100629.58;;;17.28;42.65
80397;BME280;69721;55.894;-3.052;2023-07-13T10:26:24;100631.29;;;18.22;42.19
80397;BME280;69721;55.894;-3.052;2023-07-13T10:28:47;100633.56;;;16.64;44.06
80397;BME280;69721;55.894;-3.052;2023-07-13T10:31:13;100633.28;;;16.56;44.21
80397;BME280;69721;55.894;-3.052;2023-07-13T10:33:36;100634.74;;;17.17;43.73
80397;BME280;69721;55.894;-3.052;2023-07-13T10:36:11;100637.04;;;16.37;46.42
80397;BME280;69721;55.894;-3.052;2023-07-13T10:38:28;100642.92;;;15.50;47.14
80397;BME280;69721;55.894;-3.052;2023-07-13T10:40:57;100631.18;;;16.12;45.94
80397;BME280;69721;55.894;-3.052;2023-07-13T10:43:20;100637.71;;;16.79;44.05
80397;BME280;69721;55.894;-3.052;2023-07-13T10:45:45;100639.34;;;17.20;44.85
80397;BME280;69721;55.894;-3.052;2023-07-13T10:48:12;100638.22;;;17.38;41.93
80397;BME280;69721;55.894;-3.052;2023-07-13T10:50:35;100643.36;;;16.95;43.32
80397;BME280;69721;55.894;-3.052;2023-07-13T10:53:03;100647.01;;;18.20;41.94
80397;BME280;69721;55.894;-3.052;2023-07-13T10:55:33;100645.22;;;18.18;40.39
80397;BME280;69721;55.894;-3.052;2023-07-13T10:57:51;100640.56;;;17.62;42.14
80397;BME280;69721;55.894;-3.052;2023-07-13T11:00:18;100644.17;;;18.55;41.07
80397;BME280;69721;55.894;-3.052;2023-07-13T11:02:42;100646.73;;;18.15;40.25
80397;BME280;69721;55.894;-3.052;2023-07-13T11:05:16;100648.45;;;17.35;41.83
80397;BME280;69721;55.894;-3.052;2023-07-13T11:10:00;100650.07;;;16.99;43.42
80397;BME280;69721;55.894;-3.052;2023-07-13T11:15:02;100646.24;;;17.34;42.96
80397;BME280;69721;55.894;-3.052;2023-07-13T11:17:29;100651.51;;;16.63;43.96
80397;BME280;69721;55.894;-3.052;2023-07-13T11:19:41;100651.61;;;17.25;42.99
80397;BME280;69721;55.894;-3.052;2023-07-13T11:22:13;100652.11;;;17.71;42.55
80397;BME280;69721;55.894;-3.052;2023-07-13T11:24:49;100649.62;;;17.85;42.75
80397;BME280;69721;55.894;-3.052;2023-07-13T11:26:56;100649.52;;;18.56;40.94
80397;BME280;69721;55.894;-3.052;2023-07-13T11:29:32;100647.97;;;20.09;39.85
80397;BME280;69721;55.894;-3.052;2023-07-13T11:31:52;100644.52;;;18.17;40.67
80397;BME280;69721;55.894;-3.052;2023-07-13T11:34:15;100643.59;;;19.20;39.41
80397;BME280;69721;55.894;-3.052;2023-07-13T11:36:39;100642.65;;;17.49;40.78
80397;BME280;69721;55.894;-3.052;2023-07-13T11:39:09;100646.03;;;16.76;43.08
80397;BME280;69721;55.894;-3.052;2023-07-13T11:41:30;100641.99;;;17.58;42.20
80397;BME280;69721;55.894;-3.052;2023-07-13T11:43:54;100639.10;;;18.55;39.86
80397;BME280;69721;55.894;-3.052;2023-07-13T11:46:22;100636.68;;;20.06;37.91
80397;BME280;69721;55.894;-3.052;2023-07-13T11:48:45;100636.47;;;19.77;37.25
80397;BME280;69721;55.894;-3.052;2023-07-13T11:51:17;100639.31;;;19.05;36.99
80397;BME280;69721;55.894;-3.052;2023-07-13T11:53:39;100628.30;;;19.82;36.56
80397;BME280;69721;55.894;-3.052;2023-07-13T11:56:00;100618.68;;;19.90;37.71
80397;BME280;69721;55.894;-3.052;2023-07-13T11:58:26;100610.49;;;20.83;37.16
80397;BME280;69721;55.894;-3.052;2023-07-13T12:00:52;100621.70;;;19.40;37.34
80397;BME280;69721;55.894;-3.052;2023-07-13T12:03:20;100622.71;;;17.77;40.02
80397;BME280;69721;55.894;-3.052;2023-07-13T12:08:10;100614.45;;;18.69;39.89
80397;BME280;69721;55.894;-3.052;2023-07-13T12:10:32;100617.24;;;17.44;39.97
80397;BME280;69721;55.894;-3.052;2023-07-13T12:13:00;100620.56;;;18.23;39.31
80397;BME280;69721;55.894;-3.052;2023-07-13T12:15:26;100624.06;;;19.31;39.55
80397;BME280;69721;55.894;-3.052;2023-07-13T12:17:49;100620.17;;;18.54;39.80
80397;BME280;69721;55.894;-3.052;2023-07-13T12:20:21;100623.43;;;18.32;39.64
80397;BME280;69721;55.894;-3.052;2023-07-13T12:22:39;100620.60;;;18.21;41.31
80397;BME280;69721;55.894;-3.052;2023-07-13T12:25:05;100621.86;;;18.29;40.03
80397;BME280;69721;55.894;-3.052;2023-07-13T12:27:29;100617.78;;;19.73;37.56
80397;BME280;69721;55.894;-3.052;2023-07-13T12:30:01;100623.85;;;17.48;40.24
80397;BME280;69721;55.894;-3.052;2023-07-13T12:32:20;100624.45;;;17.43;40.85
80397;BME280;69721;55.894;-3.052;2023-07-13T12:34:53;100630.31;;;17.95;43.10
80397;BME280;69721;55.894;-3.052;2023-07-13T12:37:12;100630.84;;;18.17;40.59
80397;BME280;69721;55.894;-3.052;2023-07-13T12:39:39;100622.76;;;19.38;42.16
80397;BME280;69721;55.894;-3.052;2023-07-13T12:42:16;100617.08;;;19.76;38.96